TFM - Tactical Decision Aid (Experimental) INFO Settings
ID: Runway Winds: CIG/VIS Threshold: METAR Board: Map:

KJAN - Jackson-Medgar Wiley Evers Intl

Updated at: 0713 UTC 19 Oct 2017
Latest TAF at: 0535 UTC 19 Oct 2017

TAF Board

Time0654Z19/08Z19/09Z19/10Z19/11Z19/12Z19/13Z19/14Z19/15Z19/16Z19/17Z19/18Z19/19Z19/20Z
TypeOBSPRVLPRVLPRVLPRVLPRVLPRVLPRVLPRVLPRVLPRVLPRVLPRVLPRVL
VIS10>6>6>6>6>6>6>6>6>6>6>6>6>6
CIG----------------------------
CoverCLRFEWFEWFEWFEWFEWFEWFEWFEWFEWFEWFEWFEWFEW
FltCatVFRVFRVFRVFRVFRVFRVFRVFRVFRVFRVFRVFRVFRVFR
WX----------------------------
WDir110120120120120120120120120120120120120120
WSpd34444444444444
WGst----------------------------
TAF
KJAN 190535Z 1906/2006 12004KT P6SM FEW250

METAR Board

Time18/20Z 18/21Z 18/22Z 18/23Z 19/00Z 19/01Z 19/02Z 19/03Z 19/04Z 19/05Z 19/06Z 19/07Z
VIS10 10 10 10 10 10 10 10 10 10 10 10
CIG-- -- -- -- -- -- -- -- -- -- -- --
CoverCLRCLRCLRCLRCLRCLRCLRCLRCLRCLRCLRCLR
FltCatVFRVFRVFRVFRVFRVFRVFRVFRVFRVFRVFRVFR
WX------------------------
WDir0608090100001301101600110
WSpd4 3 7 4 5 0 0 3 5 3 0 3
WGst-- -- -- -- -- -- -- -- -- -- -- --
METAR
KJAN 181954Z VRB04KT 10SM CLR 26/09 A3017 RMK AO2 SLP214 T02560089
KJAN 182054Z 06003KT 10SM CLR 26/09 A3016 RMK AO2 SLP211 T02610089 56023
KJAN 182154Z 08007KT 10SM CLR 26/09 A3016 RMK AO2 SLP209 T02560089
KJAN 182254Z 09004KT 10SM CLR 24/09 A3017 RMK AO2 SLP213 T02390094
KJAN 182354Z 10005KT 10SM CLR 18/11 A3018 RMK AO2 SLP217 T01780111 10267 20178 53005
KJAN 190054Z 00000KT 10SM CLR 15/10 A3020 RMK AO2 SLP226 T01500100
KJAN 190154Z 00000KT 10SM CLR 16/10 A3021 RMK AO2 SLP226 T01560100
KJAN 190254Z 13003KT 10SM CLR 12/09 A3021 RMK AO2 SLP227 T01220094 51011
KJAN 190354Z 11005KT 10SM CLR 13/09 A3022 RMK AO2 SLP230 T01330094
KJAN 190454Z AUTO 16003KT 10SM CLR 12/09 A3021 RMK AO2 SLP228 T01220089
KJAN 190554Z AUTO 00000KT 10SM CLR 13/09 A3020 RMK AO2 SLP223 T01280089 10183 20111 402670094 58004 $
KJAN 190654Z AUTO 11003KT 10SM CLR 11/09 A3019 RMK AO2 SLP220 T01060089 $

TAF/METAR Board Legend

Potential Impact
  None Marginal Slight Moderate High
Visibility (sm) >5 3≤X≤5 2≤X<3 0.5≤X<2 <0.5
Ceiling (100 ft) >30 10≤X≤30 6≤X<10 2≤X<6 <2
Wind Speed (kt) <10 10≤X<20 20≤X<30 ≥30
Wind Gust (kt) <15 15≤X<25 25≤X<35 ≥35
Weather No Wx Reported VCTS -TS,-FZRA TS,FZRA +TS,+FZRA